Time;durP1;ratioP1;P1;durP2;ratioP2;P2;SDS_P1;SDS_P2;PMS_P1;PMS_P2;Temp;Humidity;BMP_temperature;BMP_pressure;BME280_temperature;BME280_humidity;BME280_pressure;Samples;Min_cycle;Max_cycle;Signal;HPM_P1;HPM_P2
2022/04/12 00:00:58;;;;;;;;;;;;;;;10.62;93.68;97910.00;5078727;28;19921;-74
2022/04/12 00:03:25;;;;;;;;;;;;;;;10.70;92.49;97909.50;5078640;28;19952;-73
2022/04/12 00:05:52;;;;;;;;;;;;;;;11.05;89.78;97905.28;5076195;28;19925;-74
2022/04/12 00:08:18;;;;;;;;;;;;;;;11.12;88.69;97906.63;5073996;28;19925;-74
2022/04/12 00:10:45;;;;;;;;;;;;;;;10.58;90.19;97913.47;5075456;28;19924;-73
2022/04/12 00:13:12;;;;;;;;;;;;;;;10.23;93.30;97903.47;5072401;28;20629;-74
2022/04/12 00:15:38;;;;;;;;;;;;;;;9.89;95.71;97907.53;5075898;28;19921;-73
2022/04/12 00:20:53;;;;;;;;;;;;;;;10.72;91.60;97902.03;5075380;28;20380;-73
2022/04/12 00:23:19;;;;;;;;;;;;;;;10.98;89.54;97905.56;5075085;28;19935;-73
2022/04/12 00:25:45;;;;;;;;;;;;;;;11.10;88.45;97905.28;5075338;28;19936;-74
2022/04/12 00:28:12;;;;;;;;;;;;;;;11.20;87.62;97916.00;5076841;28;19924;-73
2022/04/12 00:30:38;;;;;;;;;;;;;;;11.25;87.16;97907.97;5077900;28;19920;-74
2022/04/12 00:33:05;;;;;;;;;;;;;;;11.30;86.75;97902.59;5074924;28;19956;-74
2022/04/12 00:35:31;;;;;;;;;;;;;;;11.21;87.33;97901.53;5074726;28;19925;-74
2022/04/12 00:37:59;;;;;;;;;;;;;;;10.92;87.89;97903.13;5076660;28;19956;-74
2022/04/12 00:40:26;;;;;;;;;;;;;;;10.95;89.23;97895.41;5077101;28;19943;-74
2022/04/12 00:42:53;;;;;;;;;;;;;;;10.69;90.18;97902.56;5071253;28;19980;-74
2022/04/12 00:45:20;;;;;;;;;;;;;;;10.56;90.93;97903.03;5078119;28;19931;-74
2022/04/12 00:47:46;;;;;;;;;;;;;;;10.67;91.04;97901.22;5075252;28;19934;-74
2022/04/12 00:50:13;;;;;;;;;;;;;;;10.34;92.34;97894.41;5074403;28;19924;-74
2022/04/12 00:52:42;;;;;;;;;;;;;;;9.96;95.09;97903.56;5075078;28;19952;-73
2022/04/12 00:55:10;;;;;;;;;;;;;;;9.97;96.79;97901.69;5078007;28;19983;-73
2022/04/12 00:57:37;;;;;;;;;;;;;;;10.03;96.50;97897.97;5077318;28;19964;-74
2022/04/12 01:00:05;;;;;;;;;;;;;;;10.11;94.90;97900.19;5073068;28;19924;-74
2022/04/12 01:02:32;;;;;;;;;;;;;;;10.38;94.52;97892.84;5074363;28;19949;-74
2022/04/12 01:04:59;;;;;;;;;;;;;;;10.66;91.85;97895.06;5077534;28;20469;-74
2022/04/12 01:07:26;;;;;;;;;;;;;;;10.89;89.93;97904.47;5077551;28;19984;-74
2022/04/12 01:09:53;;;;;;;;;;;;;;;10.94;88.72;97903.66;5074925;28;19943;-74
2022/04/12 01:12:21;;;;;;;;;;;;;;;10.95;88.56;97905.28;5074387;28;19988;-73
2022/04/12 01:14:48;;;;;;;;;;;;;;;10.64;89.48;97897.19;5075957;28;19951;-73
2022/04/12 01:17:15;;;;;;;;;;;;;;;10.33;90.23;97890.16;5077541;28;19921;-73
2022/04/12 01:19:42;;;;;;;;;;;;;;;9.92;93.71;97885.66;5076713;28;19936;-73
2022/04/12 01:22:11;;;;;;;;;;;;;;;10.07;93.42;97883.88;5072908;28;20595;-73
2022/04/12 01:24:39;;;;;;;;;;;;;;;9.98;94.67;97888.09;5074778;28;19960;-73
2022/04/12 01:27:05;;;;;;;;;;;;;;;9.97;93.56;97883.81;5077905;28;19962;-73
2022/04/12 01:29:33;;;;;;;;;;;;;;;9.73;95.62;97894.09;5076935;28;19952;-73
2022/04/12 01:31:59;;;;;;;;;;;;;;;9.61;97.00;97885.50;5074507;28;19943;-72
2022/04/12 01:34:25;;;;;;;;;;;;;;;9.12;99.27;97889.38;5073688;28;19925;-73
2022/04/12 01:36:52;;;;;;;;;;;;;;;9.05;100.00;97889.59;5076107;28;19931;-72
2022/04/12 01:39:18;;;;;;;;;;;;;;;9.03;100.00;97888.25;5076688;28;19995;-74
2022/04/12 01:41:46;;;;;;;;;;;;;;;9.08;100.00;97880.28;5078931;28;19987;-73
2022/04/12 01:44:12;;;;;;;;;;;;;;;8.89;100.00;97873.72;5070078;28;19924;-73
2022/04/12 01:46:38;;;;;;;;;;;;;;;8.93;100.00;97872.97;5076138;28;19969;-73
2022/04/12 01:49:05;;;;;;;;;;;;;;;9.27;100.00;97865.53;5079922;28;19928;-73
2022/04/12 01:51:31;;;;;;;;;;;;;;;9.06;99.59;97858.44;5080081;28;19955;-74
2022/04/12 01:53:57;;;;;;;;;;;;;;;9.10;99.67;97864.84;5075815;28;20020;-74
2022/04/12 01:56:24;;;;;;;;;;;;;;;9.22;100.00;97860.94;5076836;28;19967;-73
2022/04/12 01:58:52;;;;;;;;;;;;;;;9.89;95.77;97859.50;5078802;28;19925;-74
2022/04/12 02:01:18;;;;;;;;;;;;;;;10.29;92.05;97865.03;5079906;28;19936;-74
2022/04/12 02:03:46;;;;;;;;;;;;;;;10.47;89.41;97867.25;5078550;28;19959;-74
2022/04/12 02:06:13;;;;;;;;;;;;;;;10.61;88.21;97873.69;5075257;28;19925;-73
2022/04/12 02:08:40;;;;;;;;;;;;;;;10.66;87.51;97867.53;5077076;28;19980;-73
2022/04/12 02:11:07;;;;;;;;;;;;;;;10.66;87.15;97863.00;5079726;28;19952;-73
2022/04/12 02:13:33;;;;;;;;;;;;;;;10.71;86.86;97878.22;5078400;28;19926;-74
2022/04/12 02:16:01;;;;;;;;;;;;;;;10.67;86.77;97882.50;5074948;28;20553;-74
2022/04/12 02:18:27;;;;;;;;;;;;;;;10.66;86.69;97864.88;5076064;28;19964;-73
2022/04/12 02:20:53;;;;;;;;;;;;;;;10.72;86.35;97875.31;5077047;28;19980;-74
2022/04/12 02:23:20;;;;;;;;;;;;;;;10.39;87.43;97865.09;5079468;28;20019;-74
2022/04/12 02:25:46;;;;;;;;;;;;;;;9.99;89.76;97875.56;5076517;28;19991;-74
2022/04/12 02:28:12;;;;;;;;;;;;;;;9.70;93.02;97883.94;5076202;28;19953;-74
2022/04/12 02:30:39;;;;;;;;;;;;;;;9.56;93.01;97882.78;5076313;28;19993;-73
2022/04/12 02:33:06;;;;;;;;;;;;;;;9.73;92.86;97878.09;5007798;28;2008800;-73
2022/04/12 02:35:33;;;;;;;;;;;;;;;9.20;94.81;97879.06;5080772;28;19964;-73
2022/04/12 02:37:59;;;;;;;;;;;;;;;8.91;99.51;97879.63;5077321;28;20008;-74
2022/04/12 02:40:26;;;;;;;;;;;;;;;9.43;97.67;97883.25;5077298;28;19992;-74
2022/04/12 02:42:52;;;;;;;;;;;;;;;9.95;93.25;97874.47;5079687;28;19992;-74
2022/04/12 02:45:18;;;;;;;;;;;;;;;10.16;91.09;97876.19;5080080;28;20799;-74
2022/04/12 02:47:45;;;;;;;;;;;;;;;9.91;91.93;97876.03;5078076;28;19959;-74
2022/04/12 02:50:12;;;;;;;;;;;;;;;9.90;91.82;97882.47;5075688;28;19956;-74
2022/04/12 02:52:39;;;;;;;;;;;;;;;9.54;94.54;97884.91;5077381;28;19971;-74
2022/04/12 02:55:06;;;;;;;;;;;;;;;9.28;95.69;97883.13;5080042;28;19920;-75
2022/04/12 02:57:33;;;;;;;;;;;;;;;9.08;99.24;97880.28;5080224;28;19984;-74
2022/04/12 02:59:59;;;;;;;;;;;;;;;9.12;97.61;97868.09;5075326;28;19924;-74
2022/04/12 03:02:25;;;;;;;;;;;;;;;8.87;97.37;97874.00;5076675;28;19920;-74
2022/04/12 03:04:52;;;;;;;;;;;;;;;8.85;100.00;97877.97;5079015;28;19921;-74
2022/04/12 03:07:19;;;;;;;;;;;;;;;9.53;97.38;97882.50;5080465;28;19920;-74
2022/04/12 03:09:46;;;;;;;;;;;;;;;9.76;94.95;97882.09;5078564;28;19931;-74
2022/04/12 03:12:12;;;;;;;;;;;;;;;10.13;91.41;97871.34;5076307;28;19960;-74
2022/04/12 03:14:38;;;;;;;;;;;;;;;10.16;90.01;97881.53;5076345;28;19932;-74
2022/04/12 03:17:05;;;;;;;;;;;;;;;10.26;89.09;97879.72;5076164;28;19960;-74
2022/04/12 03:19:32;;;;;;;;;;;;;;;10.31;88.42;97873.59;5075905;28;20333;-74
2022/04/12 03:21:58;;;;;;;;;;;;;;;10.04;89.40;97870.25;5078048;28;19999;-74
2022/04/12 03:24:26;;;;;;;;;;;;;;;10.02;89.50;97873.19;5078531;28;19966;-74
2022/04/12 03:26:52;;;;;;;;;;;;;;;9.88;90.61;97871.22;5077240;28;19924;-74
2022/04/12 03:29:18;;;;;;;;;;;;;;;10.06;90.32;97871.59;5076015;28;19984;-73
2022/04/12 03:31:45;;;;;;;;;;;;;;;9.71;90.48;97874.91;5076833;28;19925;-74
2022/04/12 03:34:11;;;;;;;;;;;;;;;9.94;90.40;97868.34;5077679;28;19988;-73
2022/04/12 03:36:38;;;;;;;;;;;;;;;10.02;89.43;97867.03;5078679;28;19979;-76
2022/04/12 03:39:05;;;;;;;;;;;;;;;9.40;90.71;97878.44;5075678;28;19984;-73
2022/04/12 03:41:33;;;;;;;;;;;;;;;8.95;95.00;97881.50;5075748;28;19929;-74
2022/04/12 03:43:59;;;;;;;;;;;;;;;8.92;97.85;97875.88;5076719;28;19925;-73
2022/04/12 03:46:26;;;;;;;;;;;;;;;8.89;98.44;97882.53;5075472;28;19964;-74
2022/04/12 03:48:52;;;;;;;;;;;;;;;9.55;95.09;97885.72;5077495;28;19924;-73
2022/04/12 03:51:18;;;;;;;;;;;;;;;9.70;92.37;97873.28;5078916;28;19920;-73
2022/04/12 03:53:45;;;;;;;;;;;;;;;9.96;90.52;97865.41;5077292;28;19981;-73
2022/04/12 03:56:12;;;;;;;;;;;;;;;10.15;88.51;97869.28;5075178;28;19935;-74
2022/04/12 03:58:40;;;;;;;;;;;;;;;10.20;87.78;97875.44;5075409;28;19951;-73
2022/04/12 04:01:06;;;;;;;;;;;;;;;10.25;87.08;97880.78;5077215;28;19963;-74
2022/04/12 04:03:34;;;;;;;;;;;;;;;10.25;87.13;97883.44;5076559;28;20311;-73
2022/04/12 04:06:00;;;;;;;;;;;;;;;10.25;86.86;97879.97;5066556;28;19929;-73
2022/04/12 04:08:27;;;;;;;;;;;;;;;10.22;86.86;97883.16;5073438;28;19931;-73
2022/04/12 04:10:53;;;;;;;;;;;;;;;10.19;86.75;97884.50;5077106;28;19987;-73
2022/04/12 04:13:19;;;;;;;;;;;;;;;10.25;86.51;97885.31;5078060;28;19931;-72
2022/04/12 04:15:47;;;;;;;;;;;;;;;10.17;86.66;97883.97;5075278;28;19983;-74
2022/04/12 04:18:14;;;;;;;;;;;;;;;10.21;86.42;97897.59;5074567;28;19988;-74
2022/04/12 04:20:42;;;;;;;;;;;;;;;10.18;86.42;97892.78;5075381;28;19924;-74
2022/04/12 04:23:08;;;;;;;;;;;;;;;10.25;86.32;97893.31;5076710;28;19920;-73
2022/04/12 04:25:35;;;;;;;;;;;;;;;10.13;86.79;97898.03;5078070;28;19930;-74
2022/04/12 04:28:02;;;;;;;;;;;;;;;9.88;88.06;97906.72;5052814;28;19953;-74
2022/04/12 04:30:31;;;;;;;;;;;;;;;9.90;88.43;97904.63;5069419;28;19921;-74
2022/04/12 04:32:59;;;;;;;;;;;;;;;9.46;89.09;97898.72;5076699;28;19920;-74
2022/04/12 04:35:26;;;;;;;;;;;;;;;9.37;91.97;97894.94;5077102;28;19960;-74
2022/04/12 04:37:52;;;;;;;;;;;;;;;8.92;94.47;97903.31;5074637;28;19946;-74
2022/04/12 04:40:19;;;;;;;;;;;;;;;8.60;97.76;97899.81;5072715;28;19988;-74
2022/04/12 04:42:46;;;;;;;;;;;;;;;7.84;100.00;97898.84;5073699;28;19924;-74
2022/04/12 04:45:12;;;;;;;;;;;;;;;7.49;100.00;97899.16;5073858;28;19947;-73
2022/04/12 04:47:48;;;;;;;;;;;;;;;7.74;100.00;97903.22;5074587;28;20012;-73
2022/04/12 04:50:16;;;;;;;;;;;;;;;7.91;100.00;97907.47;5077552;28;19970;-73
2022/04/12 04:52:42;;;;;;;;;;;;;;;8.35;100.00;97908.31;5076714;28;19983;-73
2022/04/12 04:55:09;;;;;;;;;;;;;;;8.39;100.00;97897.97;5073702;28;19955;-73
2022/04/12 04:57:38;;;;;;;;;;;;;;;8.34;100.00;97904.06;5074008;28;19960;-73
2022/04/12 05:00:04;;;;;;;;;;;;;;;9.22;96.01;97916.13;5077214;28;19921;-73
2022/04/12 05:02:31;;;;;;;;;;;;;;;9.48;92.60;97920.59;5075700;28;19934;-74
2022/04/12 05:04:57;;;;;;;;;;;;;;;9.65;90.91;97910.59;5074239;28;19988;-74
2022/04/12 05:07:26;;;;;;;;;;;;;;;9.62;90.69;97913.75;5074155;28;20606;-74
2022/04/12 05:09:52;;;;;;;;;;;;;;;8.82;93.85;97927.19;5075432;28;19936;-74
2022/04/12 05:12:19;;;;;;;;;;;;;;;8.48;98.34;97921.22;5072775;28;19921;-73
2022/04/12 05:14:45;;;;;;;;;;;;;;;8.88;97.83;97915.53;5075162;28;19970;-73
2022/04/12 05:17:11;;;;;;;;;;;;;;;8.77;97.63;97918.34;5074929;28;19992;-73
2022/04/12 05:19:38;;;;;;;;;;;;;;;8.92;95.53;97924.63;5075078;28;19935;-74
2022/04/12 05:22:05;;;;;;;;;;;;;;;8.98;96.23;97922.81;5076686;28;19928;-74
2022/04/12 05:24:33;;;;;;;;;;;;;;;8.75;96.92;97928.44;5077161;28;19921;-74
2022/04/12 05:26:59;;;;;;;;;;;;;;;8.41;99.23;97931.28;5072499;28;19992;-74
2022/04/12 05:29:26;;;;;;;;;;;;;;;8.09;100.00;97922.31;5072677;28;19920;-74
2022/04/12 05:31:52;;;;;;;;;;;;;;;8.05;100.00;97921.19;5074135;28;19929;-74
2022/04/12 05:34:18;;;;;;;;;;;;;;;8.10;100.00;97911.44;5076785;28;19966;-74
2022/04/12 05:36:45;;;;;;;;;;;;;;;8.03;100.00;97916.13;5075315;28;19952;-74
2022/04/12 05:39:11;;;;;;;;;;;;;;;8.05;100.00;97921.19;5073642;28;19925;-74
2022/04/12 05:41:39;;;;;;;;;;;;;;;8.10;100.00;97915.97;5073341;28;19927;-74
2022/04/12 05:44:06;;;;;;;;;;;;;;;8.22;100.00;97924.63;5070358;28;19983;-73
2022/04/12 05:46:32;;;;;;;;;;;;;;;8.99;98.95;97925.25;5075659;28;19998;-74
2022/04/12 05:48:59;;;;;;;;;;;;;;;9.39;94.97;97924.78;5073848;28;20000;-75
2022/04/12 05:51:25;;;;;;;;;;;;;;;9.51;92.78;97925.41;5073425;28;19933;-73
2022/04/12 05:53:51;;;;;;;;;;;;;;;9.81;91.00;97919.47;5075447;28;19931;-74
2022/04/12 05:56:18;;;;;;;;;;;;;;;9.74;90.94;97922.38;5076768;28;20628;-74
2022/04/12 05:58:45;;;;;;;;;;;;;;;9.92;90.27;97923.81;5075657;28;19931;-73
2022/04/12 06:01:12;;;;;;;;;;;;;;;10.29;88.58;97918.44;5073209;28;19975;-74
2022/04/12 06:03:38;;;;;;;;;;;;;;;10.53;87.26;97919.59;5073637;28;20853;-74
2022/04/12 06:06:05;;;;;;;;;;;;;;;10.63;86.44;97929.50;5077098;28;20011;-76
2022/04/12 06:08:31;;;;;;;;;;;;;;;10.49;87.02;97923.84;5075837;28;19924;-74
2022/04/12 06:10:57;;;;;;;;;;;;;;;10.59;87.28;97925.75;5074074;28;19956;-75
2022/04/12 06:13:24;;;;;;;;;;;;;;;10.55;87.42;97933.47;5065142;28;19932;-74
2022/04/12 06:15:52;;;;;;;;;;;;;;;10.68;87.10;97924.16;5073429;28;19921;-74
2022/04/12 06:18:18;;;;;;;;;;;;;;;10.72;86.58;97926.06;5075995;28;20026;-74
2022/04/12 06:20:44;;;;;;;;;;;;;;;10.43;88.47;97924.88;5075345;28;19960;-74
2022/04/12 06:23:11;;;;;;;;;;;;;;;10.66;88.33;97923.63;5071494;28;19925;-73
2022/04/12 06:25:37;;;;;;;;;;;;;;;10.61;87.81;97915.63;5073269;28;20039;-73
2022/04/12 06:28:04;;;;;;;;;;;;;;;11.04;86.69;97920.53;5080216;28;19924;-73
2022/04/12 06:30:30;;;;;;;;;;;;;;;11.04;86.22;97922.38;5080691;28;19948;-73
2022/04/12 06:32:58;;;;;;;;;;;;;;;11.41;84.57;97922.94;5076188;28;19928;-73
2022/04/12 06:35:25;;;;;;;;;;;;;;;11.84;82.15;97911.69;5076059;28;19992;-73
2022/04/12 06:37:53;;;;;;;;;;;;;;;11.84;81.79;97919.72;5077227;28;20023;-74
2022/04/12 06:40:20;;;;;;;;;;;;;;;12.16;80.68;97929.28;5079800;28;19978;-73
2022/04/12 06:42:47;;;;;;;;;;;;;;;12.07;80.22;97933.59;5072672;28;20353;-74
2022/04/12 06:45:14;;;;;;;;;;;;;;;12.05;78.58;97944.56;5079768;28;19928;-73
2022/04/12 06:47:40;;;;;;;;;;;;;;;11.75;80.13;97933.91;5079088;28;19986;-74
2022/04/12 06:50:09;;;;;;;;;;;;;;;11.90;81.48;97941.91;5074888;28;20000;-73
2022/04/12 06:52:35;;;;;;;;;;;;;;;11.62;75.89;97934.44;5074956;28;19991;-74
2022/04/12 06:55:02;;;;;;;;;;;;;;;10.75;78.20;97933.53;5067132;28;20073;-73
2022/04/12 06:57:31;;;;;;;;;;;;;;;10.44;83.05;97931.03;5076292;28;19925;-73
2022/04/12 06:59:57;;;;;;;;;;;;;;;10.38;83.74;97940.88;5079314;28;19924;-73
2022/04/12 07:02:23;;;;;;;;;;;;;;;10.15;83.94;97952.78;5079612;28;19928;-74
2022/04/12 07:04:50;;;;;;;;;;;;;;;9.83;85.32;97946.69;5077159;28;19936;-74
2022/04/12 07:07:18;;;;;;;;;;;;;;;9.66;87.34;97941.50;5075914;28;19952;-74
2022/04/12 07:09:44;;;;;;;;;;;;;;;9.41;88.96;97941.31;5077048;28;19931;-73
2022/04/12 07:12:11;;;;;;;;;;;;;;;10.38;87.61;97938.22;5074596;28;19956;-74
2022/04/12 07:14:37;;;;;;;;;;;;;;;10.10;81.36;97949.25;5075875;28;19979;-73
2022/04/12 07:17:05;;;;;;;;;;;;;;;9.62;82.24;97944.97;5075675;28;19963;-73
2022/04/12 07:19:32;;;;;;;;;;;;;;;9.62;83.83;97948.41;5074209;28;19935;-73
2022/04/12 07:21:58;;;;;;;;;;;;;;;9.59;80.92;97950.81;5077132;28;19963;-72
2022/04/12 07:24:26;;;;;;;;;;;;;;;9.18;82.06;97954.97;5078004;28;20012;-73
2022/04/12 07:26:52;;;;;;;;;;;;;;;9.21;83.05;97943.81;5076589;28;20015;-73
2022/04/12 07:29:19;;;;;;;;;;;;;;;9.11;82.75;97944.53;5074224;28;19921;-73
2022/04/12 07:31:45;;;;;;;;;;;;;;;9.27;83.76;97939.34;5075157;28;19924;-73
2022/04/12 07:34:12;;;;;;;;;;;;;;;9.28;85.47;97944.44;5078166;28;19928;-73
2022/04/12 07:36:41;;;;;;;;;;;;;;;9.38;86.30;97944.50;5077769;28;19986;-73
2022/04/12 07:39:07;;;;;;;;;;;;;;;9.66;84.86;97951.38;5075738;28;19928;-73
2022/04/12 07:41:35;;;;;;;;;;;;;;;9.86;84.65;97956.06;5075711;28;19984;-73
2022/04/12 07:44:01;;;;;;;;;;;;;;;9.87;82.59;97965.66;5073929;28;20051;-74
2022/04/12 07:46:28;;;;;;;;;;;;;;;9.67;85.11;97953.78;5074963;28;19981;-73
2022/04/12 07:48:54;;;;;;;;;;;;;;;9.67;85.70;97947.66;5076209;28;19991;-73
2022/04/12 07:51:20;;;;;;;;;;;;;;;9.40;87.59;97953.06;5078501;28;20026;-74
2022/04/12 07:53:47;;;;;;;;;;;;;;;9.51;87.88;97954.72;5076836;28;20444;-73
2022/04/12 07:56:13;;;;;;;;;;;;;;;9.71;86.53;97957.56;5074923;28;19947;-73
2022/04/12 07:58:41;;;;;;;;;;;;;;;9.81;85.74;97961.38;5075507;28;19920;-75
2022/04/12 08:01:07;;;;;;;;;;;;;;;10.01;85.76;97964.94;5078520;28;19938;-73
2022/04/12 08:03:34;;;;;;;;;;;;;;;10.35;84.51;97953.94;5078113;28;20031;-74
2022/04/12 08:06:00;;;;;;;;;;;;;;;10.75;83.00;97960.25;5073609;28;20047;-74
2022/04/12 08:08:27;;;;;;;;;;;;;;;10.46;82.39;97950.28;5075561;28;19988;-74
2022/04/12 08:10:53;;;;;;;;;;;;;;;10.04;84.45;97959.09;5078036;28;19948;-75
2022/04/12 08:13:20;;;;;;;;;;;;;;;9.94;85.68;97961.69;5074556;28;19964;-74
2022/04/12 08:15:47;;;;;;;;;;;;;;;9.97;85.00;97965.72;5075578;28;19952;-74
2022/04/12 08:18:14;;;;;;;;;;;;;;;9.91;85.42;97956.88;5081490;28;19924;-74
2022/04/12 08:20:40;;;;;;;;;;;;;;;10.16;85.52;97958.94;5084647;28;19920;-73
2022/04/12 08:23:06;;;;;;;;;;;;;;;10.28;84.05;97954.19;5082439;28;19985;-73
2022/04/12 08:25:33;;;;;;;;;;;;;;;10.45;83.36;97944.13;5081951;28;19963;-74
2022/04/12 08:27:59;;;;;;;;;;;;;;;10.49;82.25;97955.88;5078538;28;19996;-74
2022/04/12 08:30:26;;;;;;;;;;;;;;;10.64;81.22;97941.78;5075198;28;19959;-74
2022/04/12 08:32:54;;;;;;;;;;;;;;;10.63;81.34;97943.66;5076446;28;19948;-74
2022/04/12 08:35:20;;;;;;;;;;;;;;;10.68;79.95;97938.31;5077829;28;19935;-74
2022/04/12 08:37:47;;;;;;;;;;;;;;;10.79;77.52;97926.63;5076817;28;19924;-73
2022/04/12 08:40:14;;;;;;;;;;;;;;;10.61;77.51;97921.78;5074831;28;19935;-74
2022/04/12 08:42:41;;;;;;;;;;;;;;;10.68;79.64;97910.81;5075355;28;19924;-74
2022/04/12 08:45:08;;;;;;;;;;;;;;;10.84;80.48;97915.94;5078428;28;19958;-74
2022/04/12 08:47:35;;;;;;;;;;;;;;;10.95;81.44;97910.63;5078263;28;20000;-74
2022/04/12 08:50:03;;;;;;;;;;;;;;;11.15;81.60;97911.44;5066477;28;19935;-74
2022/04/12 08:52:30;;;;;;;;;;;;;;;11.08;80.11;97902.09;5074857;28;19931;-74
2022/04/12 08:54:57;;;;;;;;;;;;;;;11.18;81.57;97902.88;5077377;28;19967;-72
2022/04/12 08:57:24;;;;;;;;;;;;;;;11.22;80.92;97898.63;5076870;28;19921;-72
2022/04/12 08:59:50;;;;;;;;;;;;;;;11.25;81.69;97906.09;5075422;28;19978;-73
2022/04/12 09:02:17;;;;;;;;;;;;;;;11.40;80.78;97886.56;5073640;28;19925;-74
2022/04/12 09:04:43;;;;;;;;;;;;;;;11.42;77.51;97889.78;5073180;28;19948;-73
2022/04/12 09:07:12;;;;;;;;;;;;;;;11.42;79.56;97897.78;5077088;28;19925;-74
2022/04/12 09:09:38;;;;;;;;;;;;;;;11.50;80.77;97899.94;5076844;28;20020;-74
2022/04/12 09:12:08;;;;;;;;;;;;;;;11.67;79.86;97896.97;5073932;28;19975;-74
2022/04/12 09:14:37;;;;;;;;;;;;;;;11.88;78.55;97885.22;5073786;28;19929;-73
2022/04/12 09:17:04;;;;;;;;;;;;;;;11.95;77.84;97899.09;5066268;28;19959;-73
2022/04/12 09:19:40;;;;;;;;;;;;;;;11.85;74.58;97897.22;5074049;28;19925;-74
2022/04/12 09:22:12;;;;;;;;;;;;;;;12.01;77.41;97903.34;5066007;28;19940;-73
2022/04/12 09:24:38;;;;;;;;;;;;;;;11.89;72.80;97906.31;5072387;28;19964;-73
2022/04/12 09:27:11;;;;;;;;;;;;;;;12.23;74.09;97903.00;5075707;28;20005;-74
2022/04/12 09:29:43;;;;;;;;;;;;;;;12.27;73.29;97898.72;5075354;28;19925;-73
2022/04/12 09:32:13;;;;;;;;;;;;;;;12.51;74.68;97891.66;5072106;28;19936;-73
2022/04/12 09:34:40;;;;;;;;;;;;;;;12.47;73.07;97889.81;5073664;28;19996;-73
2022/04/12 09:37:17;;;;;;;;;;;;;;;12.43;70.51;97894.91;5076546;28;19929;-74
2022/04/12 09:39:46;;;;;;;;;;;;;;;12.50;69.65;97891.94;5074353;28;19932;-73
2022/04/12 09:42:12;;;;;;;;;;;;;;;12.53;70.68;97884.16;5073118;28;19960;-75
2022/04/12 09:44:39;;;;;;;;;;;;;;;12.62;72.58;97882.50;5073114;28;19920;-74
2022/04/12 09:47:05;;;;;;;;;;;;;;;12.61;69.57;97870.16;5073330;28;20537;-74
2022/04/12 09:49:42;;;;;;;;;;;;;;;12.69;68.86;97861.53;5071774;28;19952;-73
2022/04/12 09:52:09;;;;;;;;;;;;;;;12.78;68.20;97857.19;5066377;28;19964;-74
2022/04/12 09:54:37;;;;;;;;;;;;;;;12.85;67.03;97864.91;5073592;28;19925;-73
2022/04/12 09:57:04;;;;;;;;;;;;;;;12.88;66.70;97859.81;5065673;28;19947;-75
2022/04/12 09:59:32;;;;;;;;;;;;;;;13.08;66.22;97848.19;5074179;28;19931;-74
2022/04/12 10:01:59;;;;;;;;;;;;;;;13.17;64.44;97851.06;5078684;28;19921;-74
2022/04/12 10:04:25;;;;;;;;;;;;;;;13.24;64.39;97854.22;5080404;28;20001;-74
2022/04/12 10:06:53;;;;;;;;;;;;;;;13.29;63.63;97846.13;5077217;28;19947;-75
2022/04/12 10:09:20;;;;;;;;;;;;;;;13.42;64.15;97846.28;5077139;28;19926;-73
2022/04/12 10:11:48;;;;;;;;;;;;;;;13.61;63.10;97843.69;5076697;28;19924;-74
2022/04/12 10:14:15;;;;;;;;;;;;;;;13.81;65.63;97840.78;5081974;28;19925;-74
2022/04/12 10:16:42;;;;;;;;;;;;;;;13.80;66.25;97844.53;5076269;28;19931;-73
2022/04/12 10:19:09;;;;;;;;;;;;;;;13.83;64.83;97843.97;5080119;28;19927;-74
2022/04/12 10:21:35;;;;;;;;;;;;;;;13.71;65.30;97840.09;5079165;28;19978;-73
2022/04/12 10:24:02;;;;;;;;;;;;;;;13.71;66.22;97846.25;5067186;28;19925;-74
2022/04/12 10:26:30;;;;;;;;;;;;;;;13.80;64.19;97844.53;5076341;28;19920;-73
2022/04/12 10:28:59;;;;;;;;;;;;;;;13.78;63.97;97835.97;5080761;28;19990;-74
2022/04/12 10:31:26;;;;;;;;;;;;;;;14.19;63.18;97840.88;5079873;28;19946;-74
2022/04/12 10:33:53;;;;;;;;;;;;;;;14.12;61.36;97824.31;5076959;28;19924;-75
2022/04/12 10:36:20;;;;;;;;;;;;;;;14.03;63.59;97826.84;5077032;28;20322;-75
2022/04/12 10:38:46;;;;;;;;;;;;;;;14.28;62.54;97806.91;5078624;28;19952;-73
2022/04/12 10:41:25;;;;;;;;;;;;;;;14.30;62.94;97816.28;5080715;28;19987;-73
2022/04/12 10:43:55;;;;;;;;;;;;;;;14.35;61.81;97810.88;5072471;28;20156;-73
2022/04/12 10:46:23;;;;;;;;;;;;;;;14.35;60.60;97810.88;5081179;28;19987;-74
2022/04/12 10:48:54;;;;;;;;;;;;;;;14.50;58.54;97804.50;5079424;28;20008;-75
2022/04/12 10:51:28;;;;;;;;;;;;;;;14.57;58.45;97789.63;5076662;28;19974;-75
2022/04/12 10:53:58;;;;;;;;;;;;;;;14.68;59.35;97801.00;5079790;28;19925;-74
2022/04/12 10:56:26;;;;;;;;;;;;;;;14.61;58.93;97794.41;5079745;28;19982;-73
2022/04/12 10:58:52;;;;;;;;;;;;;;;14.68;58.55;97798.31;5078536;28;20447;-74
2022/04/12 11:01:30;;;;;;;;;;;;;;;14.85;58.14;97803.97;5077136;28;19989;-74
2022/04/12 11:03:57;;;;;;;;;;;;;;;14.90;58.19;97787.75;5079294;28;19979;-75
2022/04/12 11:06:25;;;;;;;;;;;;;;;14.86;58.24;97786.75;5079916;28;19963;-75
2022/04/12 11:08:52;;;;;;;;;;;;;;;15.07;58.75;97777.25;5078055;28;19924;-74
2022/04/12 11:11:19;;;;;;;;;;;;;;;14.94;58.95;97772.66;5076123;28;19959;-74
2022/04/12 11:13:45;;;;;;;;;;;;;;;15.10;58.85;97775.88;5070355;28;19964;-74
2022/04/12 11:16:12;;;;;;;;;;;;;;;15.16;58.46;97768.50;5079855;28;19931;-75
2022/04/12 11:18:48;;;;;;;;;;;;;;;15.37;58.71;97764.38;5079424;28;19924;-74
2022/04/12 11:21:14;;;;;;;;;;;;;;;15.14;56.54;97763.41;5076334;28;19921;-74
2022/04/12 11:23:45;;;;;;;;;;;;;;;15.44;55.97;97754.78;5075772;28;20070;-74
2022/04/12 11:26:26;;;;;;;;;;;;;;;15.58;55.48;97750.25;5078544;28;19995;-74
2022/04/12 11:28:55;;;;;;;;;;;;;;;15.61;55.21;97755.03;5076154;28;19991;-74
2022/04/12 11:31:22;;;;;;;;;;;;;;;15.74;54.51;97766.13;5075060;28;19921;-74
2022/04/12 11:33:50;;;;;;;;;;;;;;;15.72;52.57;97754.84;5076535;28;19935;-74
2022/04/12 11:36:18;;;;;;;;;;;;;;;15.60;52.02;97749.94;5078406;28;19924;-74
2022/04/12 11:38:44;;;;;;;;;;;;;;;15.83;51.58;97758.94;5077304;28;19920;-74
2022/04/12 11:41:10;;;;;;;;;;;;;;;15.92;51.62;97749.84;5075836;28;20599;-75
2022/04/12 11:43:37;;;;;;;;;;;;;;;15.85;49.26;97759.41;5077019;28;20000;-75
2022/04/12 11:46:03;;;;;;;;;;;;;;;16.16;47.86;97750.41;5076048;28;19960;-75
2022/04/12 11:48:30;;;;;;;;;;;;;;;16.06;47.96;97760.63;5075911;28;19931;-74
2022/04/12 11:50:58;;;;;;;;;;;;;;;16.12;47.78;97754.78;5078716;28;19960;-74
2022/04/12 11:53:25;;;;;;;;;;;;;;;16.09;47.56;97751.94;5079907;28;19956;-74
2022/04/12 11:55:51;;;;;;;;;;;;;;;16.18;45.53;97748.19;5076479;28;19991;-74
2022/04/12 11:58:19;;;;;;;;;;;;;;;16.13;45.94;97753.69;5076233;28;19992;-74
2022/04/12 12:00:46;;;;;;;;;;;;;;;16.31;45.60;97753.88;5077616;28;19924;-74
2022/04/12 12:03:16;;;;;;;;;;;;;;;16.27;45.19;97745.59;5078744;28;19924;-74
2022/04/12 12:05:43;;;;;;;;;;;;;;;16.26;45.78;97744.00;5077417;28;19948;-74
2022/04/12 12:08:11;;;;;;;;;;;;;;;16.43;45.33;97748.75;5076119;28;19967;-74
2022/04/12 12:10:38;;;;;;;;;;;;;;;16.64;44.12;97747.22;5074821;28;19967;-74
2022/04/12 12:13:05;;;;;;;;;;;;;;;16.51;44.69;97754.22;5079308;28;19934;-74
2022/04/12 12:15:33;;;;;;;;;;;;;;;16.23;45.78;97746.50;5079300;28;19924;-74
2022/04/12 12:18:00;;;;;;;;;;;;;;;16.23;45.33;97747.31;5076132;28;20015;-74
2022/04/12 12:20:27;;;;;;;;;;;;;;;16.34;45.11;97756.75;5074520;28;19980;-74
2022/04/12 12:22:56;;;;;;;;;;;;;;;16.54;42.81;97750.94;5077180;28;19927;-74
2022/04/12 12:25:36;;;;;;;;;;;;;;;16.72;42.28;97746.47;5077739;28;19955;-75
2022/04/12 12:28:02;;;;;;;;;;;;;;;16.81;41.48;97744.63;5067276;28;19921;-74
2022/04/12 12:30:29;;;;;;;;;;;;;;;17.08;40.01;97733.69;5075368;28;20145;-74
2022/04/12 12:32:57;;;;;;;;;;;;;;;17.04;39.53;97727.34;5076228;28;19999;-74
2022/04/12 12:35:24;;;;;;;;;;;;;;;17.19;40.27;97728.84;5078793;28;20241;-74
2022/04/12 12:37:51;;;;;;;;;;;;;;;17.25;40.46;97723.00;5075599;28;20015;-74
2022/04/12 12:40:19;;;;;;;;;;;;;;;17.48;39.63;97723.75;5075169;28;19960;-73
2022/04/12 12:42:47;;;;;;;;;;;;;;;17.50;39.26;97721.53;5076638;28;19994;-74
2022/04/12 12:45:14;;;;;;;;;;;;;;;17.09;40.97;97718.28;5078258;28;19980;-73
2022/04/12 12:47:41;;;;;;;;;;;;;;;17.14;40.23;97710.09;5077760;28;19991;-74
2022/04/12 12:50:09;;;;;;;;;;;;;;;17.22;39.82;97712.81;5074798;28;20481;-74
2022/04/12 12:52:36;;;;;;;;;;;;;;;17.38;38.88;97694.31;5074978;28;19929;-74